Time;durP1;ratioP1;P1;durP2;ratioP2;P2;SDS_P1;SDS_P2;PMS_P1;PMS_P2;Temp;Humidity;BMP_temperature;BMP_pressure;BME280_temperature;BME280_humidity;BME280_pressure;Samples;Min_cycle;Max_cycle;Signal;HPM_P1;HPM_P2
2023/08/30 00:00:10;;;;;;;1999.90;999.90;;;16.80;99.90;;;;;;5016196;28;20258;-74
2023/08/30 00:02:36;;;;;;;1999.90;999.90;;;16.70;99.90;;;;;;5015712;28;20168;-74
2023/08/30 00:05:03;;;;;;;1999.90;999.90;;;16.80;99.90;;;;;;5015960;28;20402;-74
2023/08/30 00:07:29;;;;;;;1999.90;999.90;;;16.80;99.90;;;;;;5015628;28;20563;-74
2023/08/30 00:09:55;;;;;;;1999.90;999.90;;;16.80;99.90;;;;;;5016339;28;20478;-74
2023/08/30 00:12:21;;;;;;;1999.90;999.90;;;16.90;99.90;;;;;;5016948;28;20450;-74
2023/08/30 00:14:47;;;;;;;1999.90;999.90;;;16.90;99.90;;;;;;5016755;28;20451;-74
2023/08/30 00:17:14;;;;;;;1999.90;999.90;;;16.90;99.90;;;;;;5018279;28;20216;-74
2023/08/30 00:19:40;;;;;;;1999.90;999.90;;;17.00;99.90;;;;;;5018468;28;20404;-74
2023/08/30 00:22:08;;;;;;;1999.90;999.90;;;16.90;99.90;;;;;;5017926;28;20465;-74
2023/08/30 00:24:35;;;;;;;1999.90;999.90;;;17.00;99.90;;;;;;5017784;28;20182;-74
2023/08/30 00:27:01;;;;;;;1999.90;999.90;;;16.90;99.90;;;;;;5017367;28;20437;-74
2023/08/30 00:29:28;;;;;;;1999.90;999.90;;;16.90;99.90;;;;;;5017444;28;20458;-74
2023/08/30 00:31:54;;;;;;;1999.90;999.90;;;16.90;99.90;;;;;;5017253;28;20421;-74
2023/08/30 00:34:19;;;;;;;1999.90;999.90;;;16.80;99.90;;;;;;5016324;28;20454;-74
2023/08/30 00:36:45;;;;;;;1999.90;999.90;;;16.70;99.90;;;;;;5017108;28;20558;-74
2023/08/30 00:39:10;;;;;;;1999.90;999.90;;;16.60;99.90;;;;;;5017808;28;20173;-74
2023/08/30 00:41:36;;;;;;;1999.90;999.90;;;16.60;99.90;;;;;;5017247;28;20168;-74
2023/08/30 00:44:02;;;;;;;1999.90;999.90;;;16.50;99.90;;;;;;5017195;28;20175;-74
2023/08/30 00:46:28;;;;;;;1999.90;999.90;;;16.70;99.90;;;;;;5017832;28;20177;-74
2023/08/30 00:48:54;;;;;;;1999.90;999.90;;;16.40;99.90;;;;;;5026081;28;20220;-74
2023/08/30 00:51:20;;;;;;;1999.90;999.90;;;16.30;99.90;;;;;;5026284;28;20423;-74
2023/08/30 00:53:47;;;;;;;1999.90;999.90;;;16.30;99.90;;;;;;5027063;28;20971;-74
2023/08/30 00:56:13;;;;;;;1999.90;999.90;;;16.00;99.90;;;;;;5039047;28;20469;-74
2023/08/30 00:58:39;;;;;;;1999.90;999.90;;;16.30;99.90;;;;;;5012387;28;20487;-74
2023/08/30 01:01:07;;;;;;;1999.90;999.90;;;16.30;99.90;;;;;;5012198;28;20271;-73
2023/08/30 01:03:37;;;;;;;1999.90;999.90;;;16.20;99.90;;;;;;5012287;28;20467;-74
2023/08/30 01:06:03;;;;;;;1999.90;999.90;;;16.20;99.90;;;;;;5012088;28;20418;-73
2023/08/30 01:08:29;;;;;;;1999.90;999.90;;;16.10;99.90;;;;;;5012148;28;20424;-74
2023/08/30 01:11:06;;;;;;;1999.90;999.90;;;16.00;99.90;;;;;;5011917;28;20176;-74
2023/08/30 01:13:36;;;;;;;1999.90;999.90;;;16.00;99.90;;;;;;5012140;28;20826;-73
2023/08/30 01:16:03;;;;;;;1999.90;999.90;;;16.00;99.90;;;;;;5027046;28;20455;-74
2023/08/30 01:18:34;;;;;;;1999.90;999.90;;;16.00;99.90;;;;;;5012132;28;20430;-73
2023/08/30 01:21:03;;;;;;;1999.90;999.90;;;15.80;99.90;;;;;;5011667;28;20399;-73
2023/08/30 01:24:00;;;;;;;1999.90;999.90;;;15.80;99.90;;;;;;5011896;28;20414;-73
2023/08/30 01:26:48;;;;;;;1999.90;999.90;;;15.70;99.90;;;;;;5002934;28;20475;-73
2023/08/30 01:29:16;;;;;;;1999.90;999.90;;;15.70;99.90;;;;;;5011925;28;20435;-73
2023/08/30 01:31:43;;;;;;;1999.90;999.90;;;15.60;99.90;;;;;;5011599;28;20931;-73
2023/08/30 01:34:09;;;;;;;1999.90;999.90;;;15.60;99.90;;;;;;5011781;28;20408;-73
2023/08/30 01:36:36;;;;;;;1999.90;999.90;;;15.50;99.90;;;;;;5011881;28;20440;-74
2023/08/30 01:39:04;;;;;;;1999.90;999.90;;;15.40;99.90;;;;;;5011860;28;20840;-74
2023/08/30 01:41:30;;;;;;;1999.90;999.90;;;15.40;99.90;;;;;;5014142;28;21119;-74
2023/08/30 01:43:58;;;;;;;1999.90;999.90;;;15.30;99.90;;;;;;5015551;28;21063;-74
2023/08/30 01:46:25;;;;;;;1999.90;999.90;;;15.20;99.90;;;;;;5015365;28;20418;-73
2023/08/30 01:48:52;;;;;;;1999.90;999.90;;;15.20;99.90;;;;;;5015364;28;20405;-73
2023/08/30 01:51:18;;;;;;;1999.90;999.90;;;15.10;99.90;;;;;;5015044;28;20411;-73
2023/08/30 01:53:45;;;;;;;1999.90;999.90;;;15.00;99.90;;;;;;5015443;28;20411;-73
2023/08/30 01:56:10;;;;;;;1999.90;999.90;;;15.00;99.90;;;;;;5015230;28;20460;-73
2023/08/30 01:58:36;;;;;;;1999.90;999.90;;;15.00;99.90;;;;;;5015192;28;20980;-73
2023/08/30 02:01:02;;;;;;;1999.90;999.90;;;15.20;99.90;;;;;;5014905;28;20535;-73
2023/08/30 02:03:27;;;;;;;1999.90;999.90;;;14.90;99.90;;;;;;5015168;28;20223;-73
2023/08/30 02:06:13;;;;;;;1999.90;999.90;;;15.00;99.90;;;;;;5015065;28;20262;-73
2023/08/30 02:08:44;;;;;;;1999.90;999.90;;;15.00;99.90;;;;;;5015136;28;20173;-73
2023/08/30 02:11:17;;;;;;;1999.90;999.90;;;14.90;99.90;;;;;;5014723;28;20411;-73
2023/08/30 02:13:45;;;;;;;1999.90;999.90;;;14.80;99.90;;;;;;5014964;28;20453;-73
2023/08/30 02:16:13;;;;;;;1999.90;999.90;;;14.70;99.90;;;;;;5014740;28;20458;-73
2023/08/30 02:18:39;;;;;;;1999.90;999.90;;;14.70;99.90;;;;;;5014931;28;20459;-73
2023/08/30 02:21:05;;;;;;;1999.90;999.90;;;14.70;99.90;;;;;;5014563;28;20399;-74
2023/08/30 02:23:30;;;;;;;1999.90;999.90;;;14.70;99.90;;;;;;5014810;28;20415;-73
2023/08/30 02:25:56;;;;;;;1999.90;999.90;;;14.70;99.90;;;;;;5015133;28;20175;-74
2023/08/30 02:28:22;;;;;;;1999.90;999.90;;;14.70;99.90;;;;;;5014693;28;20668;-74
2023/08/30 02:30:47;;;;;;;1999.90;999.90;;;14.70;99.90;;;;;;5014593;28;20176;-73
2023/08/30 02:33:13;;;;;;;1999.90;999.90;;;14.60;99.90;;;;;;5014405;28;20174;-74
2023/08/30 02:35:39;;;;;;;1999.90;999.90;;;14.90;99.90;;;;;;5014517;28;20231;-74
2023/08/30 02:38:05;;;;;;;1999.90;999.90;;;14.60;99.90;;;;;;5014432;28;20479;-74
2023/08/30 02:40:31;;;;;;;1999.90;999.90;;;14.70;99.90;;;;;;5014470;28;20171;-74
2023/08/30 02:42:57;;;;;;;1999.90;999.90;;;14.60;99.90;;;;;;5016496;28;20656;-74
2023/08/30 02:45:22;;;;;;;1999.90;999.90;;;14.60;99.90;;;;;;5017248;28;20419;-74
2023/08/30 02:47:48;;;;;;;1999.90;999.90;;;14.60;99.90;;;;;;5017023;28;20197;-74
2023/08/30 02:50:14;;;;;;;1999.90;999.90;;;14.50;99.90;;;;;;5016827;28;20187;-74
2023/08/30 02:52:40;;;;;;;1999.90;999.90;;;14.40;99.90;;;;;;5015913;28;20173;-74
2023/08/30 02:55:06;;;;;;;1999.90;999.90;;;14.40;99.90;;;;;;5018869;28;20196;-75
2023/08/30 02:57:31;;;;;;;1999.90;999.90;;;14.40;99.90;;;;;;5023595;28;20640;-74
2023/08/30 02:59:57;;;;;;;1999.90;999.90;;;14.30;99.90;;;;;;5023821;28;20417;-74
2023/08/30 03:02:23;;;;;;;1999.90;999.90;;;;;;;;;;5039798;28;20230;-73
2023/08/30 03:04:49;;;;;;;1999.90;999.90;;;14.50;99.90;;;;;;5025526;28;20178;-73
2023/08/30 03:07:15;;;;;;;1999.90;999.90;;;;;;;;;;5024487;28;20440;-73
2023/08/30 03:09:40;;;;;;;1999.90;999.90;;;14.50;99.90;;;;;;5022808;28;20583;-74
2023/08/30 03:12:06;;;;;;;1999.90;999.90;;;14.50;99.90;;;;;;5021195;28;20412;-74
2023/08/30 03:14:32;;;;;;;1999.90;999.90;;;14.50;99.90;;;;;;5022321;28;20202;-74
2023/08/30 03:16:58;;;;;;;1999.90;999.90;;;14.50;99.90;;;;;;5035650;28;20487;-74
2023/08/30 03:19:23;;;;;;;1999.90;999.90;;;14.50;99.90;;;;;;5020845;28;20178;-74
2023/08/30 03:21:49;;;;;;;1999.90;999.90;;;14.50;99.90;;;;;;5019473;28;20172;-73
2023/08/30 03:24:15;;;;;;;1999.90;999.90;;;14.40;99.90;;;;;;5022254;28;20171;-73
2023/08/30 03:26:43;;;;;;;1999.90;999.90;;;14.40;99.90;;;;;;5013778;28;20746;-73
2023/08/30 03:29:09;;;;;;;1999.90;999.90;;;14.90;99.90;;;;;;5013607;28;20934;-73
2023/08/30 03:31:34;;;;;;;1999.90;999.90;;;14.50;99.90;;;;;;5013356;28;20496;-73
2023/08/30 03:34:00;;;;;;;1999.90;999.90;;;14.40;99.90;;;;;;5013313;28;20176;-73
2023/08/30 03:36:25;;;;;;;1999.90;999.90;;;14.20;99.90;;;;;;5013334;28;20177;-73
2023/08/30 03:38:51;;;;;;;1999.90;999.90;;;14.10;99.90;;;;;;5013365;28;20176;-73
2023/08/30 03:41:18;;;;;;;1999.90;999.90;;;14.10;99.90;;;;;;5013047;28;20532;-73
2023/08/30 03:43:44;;;;;;;1999.90;999.90;;;14.10;99.90;;;;;;5013339;28;20278;-73
2023/08/30 03:46:11;;;;;;;1999.90;999.90;;;14.20;99.90;;;;;;5013238;28;20883;-73
2023/08/30 03:48:37;;;;;;;1999.90;999.90;;;14.20;99.90;;;;;;5013181;28;20170;-73
2023/08/30 03:51:03;;;;;;;1999.90;999.90;;;14.20;99.90;;;;;;5012831;28;20413;-73
2023/08/30 03:53:29;;;;;;;1999.90;999.90;;;14.30;99.90;;;;;;5013067;28;20206;-73
2023/08/30 03:55:55;;;;;;;1999.90;999.90;;;14.30;99.90;;;;;;5013057;28;20666;-73
2023/08/30 03:58:21;;;;;;;1999.90;999.90;;;14.30;99.90;;;;;;5012995;28;20470;-73
2023/08/30 04:00:47;;;;;;;1999.90;999.90;;;14.30;99.90;;;;;;5012983;28;20206;-74
2023/08/30 04:03:14;;;;;;;1999.90;999.90;;;14.30;99.90;;;;;;5012368;28;20663;-73
2023/08/30 04:05:40;;;;;;;1999.90;999.90;;;14.40;99.90;;;;;;5012996;28;20184;-73
2023/08/30 04:08:06;;;;;;;1999.90;999.90;;;14.40;99.90;;;;;;5012784;28;20991;-73
2023/08/30 04:10:36;;;;;;;1999.90;999.90;;;14.50;99.90;;;;;;5012891;28;20180;-74
2023/08/30 04:13:02;;;;;;;1999.90;999.90;;;14.50;99.90;;;;;;5012608;28;20791;-73
2023/08/30 04:15:28;;;;;;;1999.90;999.90;;;14.50;99.90;;;;;;5012812;28;20509;-74
2023/08/30 04:17:53;;;;;;;1999.90;999.90;;;14.50;99.90;;;;;;5012569;28;20453;-73
2023/08/30 04:20:19;;;;;;;1999.90;999.90;;;14.60;99.90;;;;;;5012707;28;20206;-74
2023/08/30 04:22:45;;;;;;;1999.90;999.90;;;14.60;99.90;;;;;;5012402;28;20175;-74
2023/08/30 04:25:10;;;;;;;1999.90;999.90;;;14.60;99.90;;;;;;5012749;28;20182;-73
2023/08/30 04:27:36;;;;;;;1999.90;999.90;;;14.60;99.90;;;;;;5012922;28;20202;-73
2023/08/30 04:30:03;;;;;;;1999.90;999.90;;;14.60;99.90;;;;;;5012768;28;20176;-74
2023/08/30 04:32:28;;;;;;;1999.90;999.90;;;14.60;99.90;;;;;;5012456;28;20419;-73
2023/08/30 04:34:54;;;;;;;1999.90;999.90;;;14.60;99.90;;;;;;5012501;28;20990;-73
2023/08/30 04:37:19;;;;;;;1999.90;999.90;;;14.70;99.90;;;;;;5012372;28;20196;-74
2023/08/30 04:39:48;;;;;;;1999.90;999.90;;;14.70;99.90;;;;;;5012628;28;20184;-74
2023/08/30 04:42:14;;;;;;;1999.90;999.90;;;14.70;99.90;;;;;;5012230;28;20187;-74
2023/08/30 04:44:40;;;;;;;1999.90;999.90;;;14.70;99.90;;;;;;5012548;28;20910;-73
2023/08/30 04:47:06;;;;;;;1999.90;999.90;;;14.70;99.90;;;;;;5012130;28;20430;-73
2023/08/30 04:49:31;;;;;;;1999.90;999.90;;;14.70;99.90;;;;;;5012270;28;20185;-73
2023/08/30 04:51:57;;;;;;;1999.90;999.90;;;14.80;99.90;;;;;;5011997;28;20286;-73
2023/08/30 04:54:22;;;;;;;1999.90;999.90;;;14.80;99.90;;;;;;5012168;28;20283;-73
2023/08/30 04:56:49;;;;;;;1999.90;999.90;;;14.80;99.90;;;;;;5012175;28;20197;-73
2023/08/30 04:59:14;;;;;;;1999.90;999.90;;;14.90;99.90;;;;;;5012279;28;20626;-73
2023/08/30 05:01:43;;;;;;;1999.90;999.90;;;14.80;99.90;;;;;;5011779;28;20468;-73
2023/08/30 05:04:10;;;;;;;1999.90;999.90;;;14.80;99.90;;;;;;5012141;28;20577;-72
2023/08/30 05:06:36;;;;;;;1999.90;999.90;;;14.80;99.90;;;;;;5012067;28;20463;-73
2023/08/30 05:09:02;;;;;;;1999.90;999.90;;;14.80;99.90;;;;;;5012104;28;20408;-73
2023/08/30 05:11:28;;;;;;;1999.90;999.90;;;14.80;99.90;;;;;;5011763;28;20657;-73
2023/08/30 05:13:55;;;;;;;1999.90;999.90;;;14.90;99.90;;;;;;5012094;28;20406;-73
2023/08/30 05:16:20;;;;;;;1999.90;999.90;;;14.90;99.90;;;;;;5014148;28;20262;-74
2023/08/30 05:18:47;;;;;;;1999.90;999.90;;;14.90;99.90;;;;;;5016071;28;20891;-72
2023/08/30 05:21:14;;;;;;;1999.90;999.90;;;14.90;99.90;;;;;;5017496;28;20175;-74
2023/08/30 05:23:41;;;;;;;1999.90;999.90;;;14.90;99.90;;;;;;5024955;28;20416;-74
2023/08/30 05:26:08;;;;;;;1999.90;999.90;;;14.90;99.90;;;;;;5021792;28;20424;-75
2023/08/30 05:28:34;;;;;;;1999.90;999.90;;;14.90;99.90;;;;;;5021951;28;20437;-72
2023/08/30 05:31:00;;;;;;;1999.90;999.90;;;14.90;99.90;;;;;;5024862;28;20410;-74
2023/08/30 05:33:25;;;;;;;1999.90;999.90;;;14.90;99.90;;;;;;5024226;28;20245;-74
2023/08/30 05:35:51;;;;;;;1999.90;999.90;;;15.00;99.90;;;;;;5026330;28;20234;-74
2023/08/30 05:38:17;;;;;;;1999.90;999.90;;;15.00;99.90;;;;;;5022886;28;20695;-73
2023/08/30 05:40:44;;;;;;;1999.90;999.90;;;15.00;99.90;;;;;;5015230;28;20200;-73
2023/08/30 05:43:10;;;;;;;1999.90;999.90;;;14.90;99.90;;;;;;5015193;28;20177;-73
2023/08/30 05:45:37;;;;;;;1999.90;999.90;;;14.90;99.90;;;;;;5015426;28;20782;-73
2023/08/30 05:48:03;;;;;;;1999.90;999.90;;;14.90;99.90;;;;;;5015355;28;20803;-73
2023/08/30 05:50:28;;;;;;;1999.90;999.90;;;14.90;99.90;;;;;;5015385;28;20419;-73
2023/08/30 05:52:54;;;;;;;1999.90;999.90;;;14.90;99.90;;;;;;5015127;28;20409;-73
2023/08/30 05:55:20;;;;;;;1999.90;999.90;;;14.90;99.90;;;;;;5015266;28;20283;-73
2023/08/30 05:57:46;;;;;;;1999.90;999.90;;;14.90;99.90;;;;;;5015259;28;20206;-73
2023/08/30 06:00:13;;;;;;;1999.90;999.90;;;15.00;99.90;;;;;;5015182;28;20403;-73
2023/08/30 06:02:39;;;;;;;1999.90;999.90;;;15.00;99.90;;;;;;5014985;28;20168;-73
2023/08/30 06:05:05;;;;;;;1999.90;999.90;;;15.00;99.90;;;;;;5015144;28;20492;-73
2023/08/30 06:07:30;;;;;;;1999.90;999.90;;;15.10;99.90;;;;;;5014937;28;20528;-73
2023/08/30 06:09:56;;;;;;;1999.90;999.90;;;15.10;99.90;;;;;;5015022;28;20415;-73
2023/08/30 06:12:21;;;;;;;1999.90;999.90;;;15.20;99.90;;;;;;5014620;28;20174;-74
2023/08/30 06:14:51;;;;;;;1999.90;999.90;;;15.20;99.90;;;;;;5014806;28;20196;-73
2023/08/30 06:17:18;;;;;;;1999.90;999.90;;;15.40;99.90;;;;;;5014721;28;20204;-73
2023/08/30 06:19:46;;;;;;;1999.90;999.90;;;15.40;99.90;;;;;;5014918;28;20842;-73
2023/08/30 06:22:12;;;;;;;1999.90;999.90;;;15.50;99.90;;;;;;5015204;28;20796;-74
2023/08/30 06:24:37;;;;;;;1999.90;999.90;;;15.50;99.90;;;;;;5020234;28;20485;-74
2023/08/30 06:27:03;;;;;;;1999.90;999.90;;;15.60;99.90;;;;;;5020299;28;20431;-74
2023/08/30 06:29:29;;;;;;;1999.90;999.90;;;15.60;99.90;;;;;;5021072;28;20188;-74
2023/08/30 06:31:55;;;;;;;1999.90;999.90;;;15.70;99.90;;;;;;5019596;28;20503;-74
2023/08/30 06:34:20;;;;;;;1999.90;999.90;;;15.70;99.90;;;;;;5020421;28;20185;-74
2023/08/30 06:36:46;;;;;;;1999.90;999.90;;;;;;;;;;5020495;28;20196;-74
2023/08/30 06:39:12;;;;;;;1999.90;999.90;;;15.70;99.90;;;;;;5020234;28;20192;-74
2023/08/30 06:41:37;;;;;;;1999.90;999.90;;;15.80;99.90;;;;;;5021384;28;20436;-74
2023/08/30 06:44:03;;;;;;;1999.90;999.90;;;15.90;99.90;;;;;;5020187;28;20167;-74
2023/08/30 06:46:29;;;;;;;1999.90;999.90;;;15.90;99.90;;;;;;5020118;28;20175;-74
2023/08/30 06:48:55;;;;;;;1999.90;999.90;;;16.00;99.90;;;;;;5018003;28;20433;-74
2023/08/30 06:51:20;;;;;;;1999.90;999.90;;;16.00;99.90;;;;;;5027471;28;20201;-73
2023/08/30 06:53:47;;;;;;;1999.90;999.90;;;16.00;99.90;;;;;;5021046;28;20196;-71
2023/08/30 06:56:12;;;;;;;1999.90;999.90;;;15.90;99.90;;;;;;5020222;28;20204;-74
2023/08/30 06:58:38;;;;;;;1999.90;999.90;;;16.00;99.90;;;;;;5025046;28;20431;-74
2023/08/30 07:01:04;;;;;;;1999.90;999.90;;;16.10;99.90;;;;;;5025535;28;20248;-74
2023/08/30 07:03:30;;;;;;;1999.90;999.90;;;16.20;99.90;;;;;;5020973;28;20490;-75
2023/08/30 07:05:55;;;;;;;1999.90;999.90;;;16.30;99.90;;;;;;5023475;28;20174;-74
2023/08/30 07:08:21;;;;;;;1999.90;999.90;;;16.40;99.90;;;;;;5021292;28;20196;-73
2023/08/30 07:10:47;;;;;;;1999.90;999.90;;;16.50;99.90;;;;;;5014002;28;20606;-73
2023/08/30 07:13:13;;;;;;;1999.90;999.90;;;16.60;99.90;;;;;;5013663;28;20222;-73
2023/08/30 07:15:40;;;;;;;1999.90;999.90;;;16.80;99.90;;;;;;5013736;28;20581;-73
2023/08/30 07:18:06;;;;;;;1999.90;999.90;;;16.80;99.90;;;;;;5018846;28;20199;-73
2023/08/30 07:20:32;;;;;;;1999.90;999.90;;;16.90;99.90;;;;;;5013710;28;20450;-73
2023/08/30 07:22:58;;;;;;;1999.90;999.90;;;17.00;99.90;;;;;;5013395;28;20439;-74
2023/08/30 07:25:24;;;;;;;1999.90;999.90;;;17.00;99.90;;;;;;5013658;28;20198;-74
2023/08/30 07:27:49;;;;;;;1999.90;999.90;;;17.20;99.90;;;;;;5013549;28;20224;-73
2023/08/30 07:30:15;;;;;;;1999.90;999.90;;;17.20;99.90;;;;;;5013586;28;20752;-73
2023/08/30 07:32:41;;;;;;;1999.90;999.90;;;17.30;99.90;;;;;;5013235;28;20184;-73
2023/08/30 07:35:07;;;;;;;1999.90;999.90;;;17.50;99.90;;;;;;5013420;28;20451;-73
2023/08/30 07:37:34;;;;;;;1999.90;999.90;;;17.70;99.90;;;;;;5018295;28;20216;-73
2023/08/30 07:39:59;;;;;;;1999.90;999.90;;;17.90;99.90;;;;;;5012954;28;20397;-73
2023/08/30 07:42:25;;;;;;;1999.90;999.90;;;18.00;99.90;;;;;;5013008;28;20414;-73
2023/08/30 07:44:50;;;;;;;1999.90;999.90;;;18.10;99.90;;;;;;5013220;28;20207;-73
2023/08/30 07:47:16;;;;;;;1999.90;999.90;;;18.30;99.90;;;;;;5013212;28;20192;-74
2023/08/30 07:49:42;;;;;;;1999.90;999.90;;;18.40;99.90;;;;;;5013276;28;20179;-73
2023/08/30 07:52:10;;;;;;;1999.90;999.90;;;18.60;99.90;;;;;;5012916;28;20874;-72
2023/08/30 07:54:37;;;;;;;1999.90;999.90;;;18.80;99.90;;;;;;5013062;28;20284;-73
2023/08/30 07:57:03;;;;;;;1999.90;999.90;;;18.80;99.90;;;;;;5012940;28;20438;-73
2023/08/30 07:59:29;;;;;;;1999.90;999.90;;;19.00;99.90;;;;;;5015793;28;20517;-73
2023/08/30 08:01:55;;;;;;;1999.90;999.90;;;19.00;99.90;;;;;;5000046;28;20504;-73
2023/08/30 08:04:21;;;;;;;1999.90;999.90;;;19.20;99.90;;;;;;4989208;28;20182;-74
2023/08/30 08:06:47;;;;;;;1999.90;999.90;;;19.30;99.90;;;;;;4998563;28;20430;-74
2023/08/30 08:09:15;;;;;;;1999.90;999.90;;;19.50;99.90;;;;;;5008799;28;20197;-73
2023/08/30 08:11:43;;;;;;;1999.90;999.90;;;19.60;99.90;;;;;;5009779;28;20793;-74
2023/08/30 08:14:10;;;;;;;1999.90;999.90;;;19.70;99.90;;;;;;5008286;28;20436;-73
2023/08/30 08:16:36;;;;;;;1999.90;999.90;;;19.80;99.90;;;;;;5007895;28;20838;-72
2023/08/30 08:19:01;;;;;;;1999.90;999.90;;;19.90;99.90;;;;;;5008829;28;20430;-73
2023/08/30 08:21:27;;;;;;;1999.90;999.90;;;19.80;99.90;;;;;;5008162;28;20184;-73
2023/08/30 08:23:52;;;;;;;1999.90;999.90;;;19.90;99.90;;;;;;5023905;28;20187;-72
2023/08/30 08:26:18;;;;;;;1999.90;999.90;;;20.00;99.90;;;;;;5025607;28;20183;-72
2023/08/30 08:28:44;;;;;;;1999.90;999.90;;;19.90;99.90;;;;;;5016355;28;20173;-72
2023/08/30 08:31:10;;;;;;;1999.90;999.90;;;19.90;99.90;;;;;;5008069;28;20252;-72
2023/08/30 08:33:36;;;;;;;1999.90;999.90;;;19.90;99.90;;;;;;5009043;28;20171;-72
2023/08/30 08:36:02;;;;;;;1999.90;999.90;;;19.80;99.90;;;;;;5016651;28;20473;-71
2023/08/30 08:38:27;;;;;;;1999.90;999.90;;;19.70;99.90;;;;;;5027862;28;20705;-74
2023/08/30 08:41:03;;;;;;;1999.90;999.90;;;19.60;99.90;;;;;;5019167;28;20271;-75
2023/08/30 08:43:29;;;;;;;1999.90;999.90;;;19.50;99.90;;;;;;5000869;28;20172;-72
2023/08/30 08:45:59;;;;;;;1999.90;999.90;;;19.50;99.90;;;;;;5007675;28;20419;-71
2023/08/30 08:48:29;;;;;;;1999.90;999.90;;;19.40;99.90;;;;;;5008209;28;20521;-74
2023/08/30 08:50:55;;;;;;;1999.90;999.90;;;19.50;99.90;;;;;;5008031;28;20426;-72
2023/08/30 08:53:21;;;;;;;1999.90;999.90;;;19.50;99.90;;;;;;5007692;28;20419;-71
2023/08/30 08:55:48;;;;;;;1999.90;999.90;;;19.50;99.90;;;;;;5007530;28;20495;-72
2023/08/30 08:58:15;;;;;;;1999.90;999.90;;;19.50;99.90;;;;;;5008507;28;20463;-73
2023/08/30 09:00:42;;;;;;;1999.90;999.90;;;19.40;99.90;;;;;;5007554;28;20866;-72
2023/08/30 09:03:09;;;;;;;1999.90;999.90;;;19.40;99.90;;;;;;5007328;28;20423;-71
2023/08/30 09:05:37;;;;;;;1999.90;999.90;;;19.50;99.90;;;;;;5008362;28;20485;-72
2023/08/30 09:08:04;;;;;;;1999.90;999.90;;;19.50;99.90;;;;;;5007730;28;20433;-72
2023/08/30 09:10:32;;;;;;;1999.90;999.90;;;19.50;99.90;;;;;;5007370;28;20418;-72
2023/08/30 09:12:58;;;;;;;1999.90;999.90;;;19.50;99.90;;;;;;5007451;28;20430;-74
2023/08/30 09:15:34;;;;;;;1999.90;999.90;;;19.40;99.90;;;;;;5008179;28;20454;-72
2023/08/30 09:18:00;;;;;;;1999.90;999.90;;;19.40;99.90;;;;;;5008002;28;20207;-71
2023/08/30 09:20:25;;;;;;;1999.90;999.90;;;19.40;99.90;;;;;;5007258;28;20416;-72
2023/08/30 09:22:51;;;;;;;1999.90;999.90;;;19.40;99.90;;;;;;5007443;28;20791;-73
2023/08/30 09:25:25;;;;;;;1999.90;999.90;;;19.40;99.90;;;;;;5007946;28;20235;-72
2023/08/30 09:27:51;;;;;;;1999.90;999.90;;;19.30;99.90;;;;;;5007449;28;20192;-71
2023/08/30 09:30:22;;;;;;;1999.90;999.90;;;19.40;99.90;;;;;;5007421;28;20419;-71
2023/08/30 09:32:47;;;;;;;1999.90;999.90;;;19.30;99.90;;;;;;5007144;28;20180;-74
2023/08/30 09:35:13;;;;;;;1999.90;999.90;;;19.20;99.90;;;;;;5007965;28;20464;-74
2023/08/30 09:37:39;;;;;;;1999.90;999.90;;;19.20;99.90;;;;;;5007163;28;20565;-71
2023/08/30 09:40:05;;;;;;;1999.90;999.90;;;19.20;99.90;;;;;;5007416;28;20181;-74
2023/08/30 09:42:31;;;;;;;1999.90;999.90;;;19.20;99.90;;;;;;5007794;28;20179;-72
2023/08/30 09:44:57;;;;;;;1999.90;999.90;;;19.20;99.90;;;;;;5007265;28;20458;-72
2023/08/30 09:47:26;;;;;;;1999.90;999.90;;;19.30;99.90;;;;;;5007330;28;20452;-74
2023/08/30 09:49:54;;;;;;;1999.90;999.90;;;19.40;99.90;;;;;;5007868;28;20415;-71
2023/08/30 09:52:23;;;;;;;1999.90;999.90;;;19.40;99.90;;;;;;5006791;28;20882;-71
2023/08/30 09:54:49;;;;;;;1999.90;999.90;;;19.50;99.90;;;;;;5006949;28;20463;-72
2023/08/30 09:57:16;;;;;;;1999.90;999.90;;;19.60;99.90;;;;;;5007458;28;20495;-74
2023/08/30 09:59:43;;;;;;;1999.90;999.90;;;19.70;99.90;;;;;;5007608;28;21141;-72
2023/08/30 10:02:09;;;;;;;1999.90;999.90;;;19.70;99.90;;;;;;5008579;28;20415;-72
2023/08/30 10:04:39;;;;;;;1999.90;999.90;;;19.80;99.90;;;;;;5010909;28;20475;-73
2023/08/30 10:07:06;;;;;;;1999.90;999.90;;;19.90;99.90;;;;;;5011425;28;20439;-71
2023/08/30 10:09:32;;;;;;;1999.90;999.90;;;19.90;99.90;;;;;;5010536;28;20415;-71
2023/08/30 10:12:01;;;;;;;1999.90;999.90;;;19.80;99.90;;;;;;5010190;28;20985;-73
2023/08/30 10:14:26;;;;;;;1999.90;999.90;;;19.70;99.90;;;;;;5010942;28;20475;-74
2023/08/30 10:17:03;;;;;;;1999.90;999.90;;;19.70;99.90;;;;;;5010353;28;21013;-72
2023/08/30 10:19:29;;;;;;;1999.90;999.90;;;19.60;99.90;;;;;;5010664;28;20188;-71
2023/08/30 10:22:04;;;;;;;1999.90;999.90;;;19.50;99.90;;;;;;5009989;28;20419;-71
2023/08/30 10:24:35;;;;;;;1999.90;999.90;;;19.30;99.90;;;;;;5010162;28;20510;-71
2023/08/30 10:27:03;;;;;;;1999.90;999.90;;;19.00;99.90;;;;;;5010266;28;20423;-76
2023/08/30 10:29:31;;;;;;;1999.90;999.90;;;18.60;99.90;;;;;;5010847;28;20408;-72
2023/08/30 10:32:05;;;;;;;1999.90;999.90;;;18.20;99.90;;;;;;5009668;28;20990;-71
2023/08/30 10:34:35;;;;;;;1999.90;999.90;;;18.00;99.90;;;;;;5013018;28;20444;-71
2023/08/30 10:37:03;;;;;;;1999.90;999.90;;;17.60;99.90;;;;;;5026845;28;20436;-71
2023/08/30 10:39:37;;;;;;;1999.90;999.90;;;17.00;99.90;;;;;;5017652;28;20431;-71
2023/08/30 10:42:11;;;;;;;1999.90;999.90;;;16.60;99.90;;;;;;5010230;28;20682;-68
2023/08/30 10:44:59;;;;;;;1999.90;999.90;;;16.30;99.90;;;;;;5013469;28;20426;-67
2023/08/30 10:47:29;;;;;;;1999.90;999.90;;;15.90;99.90;;;;;;5010532;28;20430;-67
2023/08/30 10:50:14;;;;;;;1999.90;999.90;;;15.70;99.90;;;;;;5009949;28;20502;-67
2023/08/30 10:52:40;;;;;;;1999.90;999.90;;;15.70;99.90;;;;;;5009973;28;20510;-68
2023/08/30 10:55:15;;;;;;;1999.90;999.90;;;15.60;99.90;;;;;;5009415;28;20542;-68
2023/08/30 10:57:45;;;;;;;1999.90;999.90;;;15.60;99.90;;;;;;5012106;28;20215;-70
2023/08/30 11:00:11;;;;;;;1999.90;999.90;;;15.70;99.90;;;;;;5010134;28;20421;-70
2023/08/30 11:02:38;;;;;;;1999.90;999.90;;;15.70;99.90;;;;;;5009237;28;20466;-69
2023/08/30 11:05:06;;;;;;;1999.90;999.90;;;15.70;99.90;;;;;;5008287;28;20251;-69
2023/08/30 11:07:32;;;;;;;1999.90;999.90;;;15.80;99.90;;;;;;5009784;28;20885;-69
2023/08/30 11:09:58;;;;;;;1999.90;999.90;;;15.70;99.90;;;;;;5010352;28;20503;-69
2023/08/30 11:12:25;;;;;;;1999.90;999.90;;;15.70;99.90;;;;;;5008885;28;20198;-68
2023/08/30 11:14:52;;;;;;;1999.90;999.90;;;15.60;99.90;;;;;;5009436;28;20474;-68
2023/08/30 11:17:18;;;;;;;1999.90;999.90;;;15.60;99.90;;;;;;5009877;28;20456;-68
2023/08/30 11:19:44;;;;;;;1999.90;999.90;;;15.60;99.90;;;;;;5009421;28;20420;-68
2023/08/30 11:22:10;;;;;;;1999.90;999.90;;;15.50;99.90;;;;;;5009546;28;20940;-69
2023/08/30 11:24:36;;;;;;;1999.90;999.90;;;15.60;99.90;;;;;;5010028;28;20408;-69
2023/08/30 11:27:01;;;;;;;1999.90;999.90;;;15.60;99.90;;;;;;5009288;28;20954;-69
2023/08/30 11:29:27;;;;;;;1999.90;999.90;;;15.50;99.90;;;;;;5010053;28;20183;-69
2023/08/30 11:31:53;;;;;;;1999.90;999.90;;;15.60;99.90;;;;;;5009213;28;20579;-69
2023/08/30 11:34:22;;;;;;;1999.90;999.90;;;15.60;99.90;;;;;;5008910;28;20667;-69
2023/08/30 11:36:49;;;;;;;1999.90;999.90;;;15.60;99.90;;;;;;5009559;28;20212;-69
2023/08/30 11:39:16;;;;;;;1999.90;999.90;;;15.70;99.90;;;;;;5009741;28;20809;-69
2023/08/30 11:41:42;;;;;;;1999.90;999.90;;;15.80;99.90;;;;;;5008813;28;20904;-69
2023/08/30 11:44:08;;;;;;;1999.90;999.90;;;15.80;99.90;;;;;;5009475;28;20423;-69
2023/08/30 11:46:34;;;;;;;1999.90;999.90;;;15.80;99.90;;;;;;5009638;28;20435;-69
2023/08/30 11:49:00;;;;;;;1999.90;999.90;;;15.80;99.90;;;;;;5008927;28;20290;-69
2023/08/30 11:51:26;;;;;;;1999.90;999.90;;;15.80;99.90;;;;;;5009313;28;20182;-69
2023/08/30 11:53:54;;;;;;;1999.90;999.90;;;15.70;99.90;;;;;;5009159;28;20559;-69
2023/08/30 11:56:19;;;;;;;1999.90;999.90;;;15.80;99.90;;;;;;5008639;28;20459;-69
2023/08/30 11:58:45;;;;;;;1999.90;999.90;;;15.80;99.90;;;;;;5009308;28;20434;-68